Melbourne Airport, Victoria

11:06 PM AEST on July 25, 2016 (GMT +1000)
Melbourne International | | Change Station

Elev 387 ft 37.67 °S, 144.83 °E | Updated 36 minutes ago

Clear
Clear
45 °F
Feels Like 36 °F
N
24
Wind Variable Wind from WNW

Today
High -- | Low -- °F
--% Chance of Precip.
Yesterday
High -- | Low -- °F
Precip. -- in
Pressure 29.74 in
Visibility -9999.0 miles
Clouds
Windchill 36 °F
Dew Point 34 °F
Humidity 66%
Rainfall 0.00 in
Snow Depth Not available.
7:26 AM 5:28 PM
Waning Gibbous, 66% visible
METAR YMML 251230Z 29021KT CAVOK 07/01 Q1007 FM1230 MOD/SEV TURB BLW 5000FT
Pressure 29.74 in
Visibility -9999.0 miles
Clouds
Windchill 36 °F
Dew Point 34 °F
Humidity 66%
Rainfall 0.00 in
Snow Depth Not available.
7:26 AM 5:28 PM
Waning Gibbous, 66% visible
METAR YMML 251230Z 29021KT CAVOK 07/01 Q1007 FM1230 MOD/SEV TURB BLW 5000FT

10-Day Weather Forecast

Almanac

Astronomy

Jul. 25, 2016 Rise Set
Actual Time
Civil Twilight
Nautical Twilight
Astronomical Twilight
Moon
Length of Visible Light
Length of Day
Tomorrow will be .
, % of the Moon is Illuminated

Today's Extremes

Country Highs Country Lows

Community

WunderPhotos

Upload Photos

1,927,297 photos uploaded!

WunderBlog® & News

Nearby

Air Quality

  Air Quality AQ Index Pollutant
Not available.

Snow Depth

Station Depth Elevation

Earthquake Activity

City Distance Mag. Time & Date
Minimum magnitude displayed is 2.5.

Coastal Water Temperatures

Place Temperature

Stations

Nearby Weather Stations

Station Location Temp. Windchill Dew Point Humidity Wind Precip. Elev Updated Type